M I D A S
Marine Information and Data Acquisition System
Tripno 1281 of the Zeeleeuw from 2007-05-31 07:14:18 to 2007-05-31 14:33:15
Back to CruiseResearch ActivitiesStationsMapUnderway DataData graphs

EquipmentUnitsComment
TimeDGPSUTC
LatitudeDGPSDM.mWGS84
LongitudeDGPSDM.mWGS84
HeadingGyrodeg 
SOGDGPSknotsSpeed over ground
COGDGPSdegCourse over ground
DepthEcho soundermeters200 kHz
Missing or incorrect values are displayed as -999
Navigation data collected by the RV Zeeleeuw from 2007-05-31 07:16:55 to 2007-05-31 14:42:46
Time Latitude Longitude Heading SOG COG Depth
2007-05-31 07:18:00 51°13.613 2°56.04 119.1 3.4 297 -999
2007-05-31 07:19:00 51°13.65 2°55.94 124.6 4.9 302 -999
2007-05-31 07:20:00 51°13.683 2°55.837 106.6 3.8 288 -999
2007-05-31 07:21:00 51°13.69 2°55.756 86.6 2.6 270 10
2007-05-31 07:22:00 51°13.69 2°55.722 60.9 0.4 355 10.6
2007-05-31 07:23:00 51°13.712 2°55.728 9.2 2.1 353 10.6
2007-05-31 07:24:00 51°13.775 2°55.679 336.9 6.9 333 10.2
2007-05-31 07:25:00 51°13.903 2°55.584 339.6 9.2 336 9.9
2007-05-31 07:26:00 51°14.038 2°55.486 339.4 8 335 10.2
2007-05-31 07:27:00 51°14.15 2°55.399 336.9 7.9 332 10.3
2007-05-31 07:28:00 51°14.264 2°55.259 318.1 9.5 313 10.2
2007-05-31 07:28:59 51°14.374 2°55.041 310.7 11.5 305 10
2007-05-31 07:30:00 51°14.483 2°54.758 308 13.3 301 10.1
2007-05-31 07:31:00 51°14.594 2°54.447 306.9 13.6 300 9.4
2007-05-31 07:32:00 51°14.69 2°54.125 294.6 13.5 283 9.4
2007-05-31 07:33:00 51°14.718 2°53.765 283.4 13.6 278 10.2
2007-05-31 07:34:00 51°14.751 2°53.404 285.1 13.8 279 10
2007-05-31 07:35:00 51°14.776 2°53.043 282.4 13.7 276 8.4
2007-05-31 07:35:59 51°14.789 2°52.682 275.8 14.1 269 8.6
2007-05-31 07:37:00 51°14.793 2°52.301 278.7 14.2 271 8.8
2007-05-31 07:38:00 51°14.795 2°51.922 278.7 14.2 273 9.2
2007-05-31 07:39:00 51°14.802 2°51.545 278.3 14.2 272 9.7
2007-05-31 07:40:00 51°14.807 2°51.165 277.4 14.3 271 10.2
2007-05-31 07:41:00 51°14.808 2°50.786 274.9 14.3 265 10.8
2007-05-31 07:42:00 51°14.757 2°50.413 260.2 14.4 256 11
2007-05-31 07:43:00 51°14.703 2°50.038 262.5 14.5 258 11.3
2007-05-31 07:44:00 51°14.652 2°49.664 262.4 14.4 257 11.3
2007-05-31 07:45:00 51°14.6 2°49.29 262.7 14.5 258 11.4
2007-05-31 07:46:00 51°14.55 2°48.913 262.4 14.5 258 11.3
2007-05-31 07:47:00 51°14.499 2°48.535 262.7 14.5 258 11.2
2007-05-31 07:48:00 51°14.442 2°48.161 261.1 14.4 257 10.9
2007-05-31 07:49:00 51°14.384 2°47.79 260.7 14.4 256 10.3
2007-05-31 07:49:59 51°14.327 2°47.428 260.5 14.3 255 9.1
2007-05-31 07:51:00 51°14.27 2°47.058 260.5 14.1 256 8.7
2007-05-31 07:51:59 51°14.219 2°46.698 261.9 14.2 256 8.9
2007-05-31 07:53:00 51°14.15 2°46.328 258.8 14.3 254 9.3
2007-05-31 07:54:00 51°14.082 2°45.962 258.4 14.4 254 10.5
2007-05-31 07:54:59 51°14.014 2°45.603 258.1 14.4 253 10.9
2007-05-31 07:56:00 51°13.943 2°45.232 257.6 14.4 253 11.2
2007-05-31 07:56:59 51°13.875 2°44.874 258.2 14.3 253 11.1
2007-05-31 07:58:00 51°13.805 2°44.507 258 14.1 253 10.1
2007-05-31 07:58:59 51°13.739 2°44.16 256.8 13.8 253 8.1
2007-05-31 07:59:59 51°13.674 2°43.811 260 13.8 257 8.2
2007-05-31 08:01:00 51°13.614 2°43.445 257.1 14.1 253 9.4
2007-05-31 08:02:00 51°13.549 2°43.085 257.8 14.1 253 10.5
2007-05-31 08:03:00 51°13.484 2°42.726 257.9 14.1 253 11.3
2007-05-31 08:03:59 51°13.418 2°42.372 258 14.2 253 11.8
2007-05-31 08:05:00 51°13.346 2°42.004 258.3 14.4 253 12.3
2007-05-31 08:06:00 51°13.277 2°41.639 258.9 14.4 254 12.9
2007-05-31 08:07:00 51°13.207 2°41.275 258.5 14.3 253 13
2007-05-31 08:08:00 51°13.136 2°40.911 258.8 14.4 254 12.7
2007-05-31 08:09:00 51°13.066 2°40.547 258.3 14.4 252 13
2007-05-31 08:10:00 51°12.993 2°40.185 256.1 14.4 250 12.7
2007-05-31 08:11:00 51°12.907 2°39.83 252.1 14.3 243 12.5
2007-05-31 08:12:00 51°12.782 2°39.506 241 14.3 237 12.4
2007-05-31 08:13:00 51°12.647 2°39.192 234.9 14.3 231 12.8
2007-05-31 08:14:00 51°12.488 2°38.909 231 14.3 228 12.7
2007-05-31 08:14:59 51°12.333 2°38.631 231.5 14.3 229 13
2007-05-31 08:16:00 51°12.174 2°38.344 231.5 14.2 227 13.2
2007-05-31 08:17:00 51°12.018 2°38.062 231.4 14.2 229 13.3
2007-05-31 08:18:00 51°11.862 2°37.781 231 14.1 226 13.3
2007-05-31 08:19:00 51°11.689 2°37.528 223.4 14.2 221 13.4
2007-05-31 08:19:59 51°11.515 2°37.286 223.8 14.1 222 13.1
2007-05-31 08:21:00 51°11.32 2°37.07 211.7 14.1 210 13
2007-05-31 08:22:00 51°11.116 2°36.884 211.2 14.3 210 12.2
2007-05-31 08:23:00 51°10.9 2°36.767 186.1 13.7 184 11.2
2007-05-31 08:24:00 51°10.689 2°36.858 148.6 13.1 148 9.3
2007-05-31 08:25:00 51°10.505 2°37.046 149.9 13.4 153 8.4
2007-05-31 08:26:00 51°10.287 2°37.17 166.4 13.7 168 17.3
2007-05-31 08:27:00 51°10.06 2°37.221 170.5 13.7 172 17.2
2007-05-31 08:28:00 51°9.834 2°37.271 169.7 13.9 171 16.5
2007-05-31 08:29:00 51°9.606 2°37.325 169.5 13.7 171 15.1
2007-05-31 08:30:00 51°9.395 2°37.381 169.8 9.9 170 12.3
2007-05-31 08:30:59 51°9.318 2°37.469 111.7 4.3 105 11.4
2007-05-31 08:32:00 51°9.347 2°37.544 30.5 2.8 21 11.3
2007-05-31 08:33:00 51°9.384 2°37.557 16.5 2 4 11.7
2007-05-31 08:34:00 51°9.412 2°37.555 7.7 1.5 351 12
2007-05-31 08:35:00 51°9.433 2°37.545 0.1 1.2 337 12.2
2007-05-31 08:35:59 51°9.451 2°37.531 353.3 1.8 337 12.4
2007-05-31 08:37:00 51°9.509 2°37.523 14.7 4.3 12 13.2
2007-05-31 08:38:00 51°9.558 2°37.579 54.1 3.1 54 13.8
2007-05-31 08:39:00 51°9.573 2°37.653 82.7 3.1 88 13.7
2007-05-31 08:40:00 51°9.564 2°37.738 95 3.3 98 13.3
2007-05-31 08:41:00 51°9.559 2°37.825 90 3.3 93 12.8
2007-05-31 08:42:00 51°9.558 2°37.914 87.9 3.4 89 12.5
2007-05-31 08:43:00 51°9.553 2°38.004 95.6 3.4 100 12.2
2007-05-31 08:44:00 51°9.543 2°38.09 96.7 3.3 99 11.8
2007-05-31 08:45:00 51°9.539 2°38.175 89.2 3.2 91 11.5
2007-05-31 08:46:00 51°9.538 2°38.26 88.2 3.2 92 11.4
2007-05-31 08:47:00 51°9.538 2°38.346 87.1 3.2 89 11.3
2007-05-31 08:48:00 51°9.54 2°38.433 85.6 3.3 89 11.2
2007-05-31 08:49:00 51°9.542 2°38.52 84.2 3.3 88 11.2
2007-05-31 08:50:00 51°9.546 2°38.608 82.5 3.3 86 11.1
2007-05-31 08:51:00 51°9.553 2°38.695 80.5 3.3 84 11
2007-05-31 08:52:00 51°9.561 2°38.781 78.6 3.3 81 10.9
2007-05-31 08:53:00 51°9.572 2°38.867 76.7 3.3 77 11
2007-05-31 08:54:00 51°9.585 2°38.952 75 3.3 77 10.8
2007-05-31 08:55:00 51°9.599 2°39.037 73.1 3.3 75 10.8
2007-05-31 08:55:59 51°9.615 2°39.12 71.1 3.3 72 10.7
2007-05-31 08:57:00 51°9.633 2°39.205 69.2 3.3 70 10.6
2007-05-31 08:58:00 51°9.651 2°39.29 73.4 3.4 75 10.6
2007-05-31 08:59:00 51°9.66 2°39.378 84.3 3.4 86 10.6
2007-05-31 09:00:00 51°9.66 2°39.469 89.8 3.4 91 10.5
2007-05-31 09:01:00 51°9.659 2°39.559 88.4 3.4 89 10.4
2007-05-31 09:02:00 51°9.662 2°39.65 84.3 3.4 85 10.2
2007-05-31 09:03:00 51°9.67 2°39.738 79.5 3.4 82 10.2
2007-05-31 09:04:00 51°9.681 2°39.827 78.5 3.4 80 10.1
2007-05-31 09:05:00 51°9.692 2°39.916 77.4 3.4 78 10.1
2007-05-31 09:06:00 51°9.704 2°40.004 76.2 3.4 76 9.9
2007-05-31 09:07:00 51°9.718 2°40.094 75 3.5 74 9.9
2007-05-31 09:08:00 51°9.733 2°40.182 74 3.5 74 10
2007-05-31 09:09:00 51°9.75 2°40.272 72.5 3.5 72 9.9
2007-05-31 09:10:00 51°9.768 2°40.361 71.4 3.5 70 9.9
2007-05-31 09:11:00 51°9.786 2°40.45 73.6 3.5 76 9.9
2007-05-31 09:12:00 51°9.791 2°40.541 91.9 3.4 94 9.8
2007-05-31 09:13:00 51°9.774 2°40.615 126.6 2.6 127 9.6
2007-05-31 09:14:00 51°9.744 2°40.648 166.3 2.1 162 9.6
2007-05-31 09:15:00 51°9.714 2°40.655 191.2 1.6 175 9.4
2007-05-31 09:16:00 51°9.692 2°40.659 190.1 1.2 170 9.5
2007-05-31 09:17:00 51°9.673 2°40.666 183.4 1.1 157 9.4
2007-05-31 09:18:00 51°9.652 2°40.674 184.7 2.3 182 9.4
2007-05-31 09:19:00 51°9.614 2°40.62 245.2 4 244 9.2
2007-05-31 09:20:00 51°9.609 2°40.501 282.8 4.9 284 9.4
2007-05-31 09:21:00 51°9.661 2°40.396 323.4 5.4 327 9.7
2007-05-31 09:22:00 51°9.731 2°40.365 355.8 3.6 359 10
2007-05-31 09:23:00 51°9.779 2°40.382 16.7 2.7 22 10.3
2007-05-31 09:24:00 51°9.814 2°40.413 30.9 2.3 36 10.4
2007-05-31 09:25:00 51°9.868 2°40.407 327.5 4.5 318 10.6
2007-05-31 09:26:00 51°9.892 2°40.254 271.1 8.1 268 11
2007-05-31 09:27:00 51°9.894 2°39.952 274.2 12.8 271 11.2
2007-05-31 09:28:00 51°9.894 2°39.608 274.1 13.1 270 11.9
2007-05-31 09:29:00 51°9.89 2°39.261 272.1 13 268 12.4
2007-05-31 09:30:00 51°9.873 2°38.916 268.8 13.1 266 13.2
2007-05-31 09:31:00 51°9.855 2°38.571 269.1 13.1 266 14.4
2007-05-31 09:32:00 51°9.84 2°38.224 269.2 13.1 266 15.6
2007-05-31 09:33:00 51°9.824 2°37.878 269.3 13.1 266 16.9
2007-05-31 09:34:00 51°9.809 2°37.531 269.3 13.2 266 17.5
2007-05-31 09:35:00 51°9.796 2°37.183 269.2 13.1 267 17.7
2007-05-31 09:36:00 51°9.781 2°36.837 269.2 13.1 266 17.8
2007-05-31 09:37:00 51°9.765 2°36.492 268.7 13 265 18.8
2007-05-31 09:38:00 51°9.751 2°36.152 269.3 12.8 266 18.7
2007-05-31 09:39:00 51°9.737 2°35.813 268.9 12.9 266 19.4
2007-05-31 09:40:00 51°9.748 2°35.475 283.2 12.8 282 19.8
2007-05-31 09:41:00 51°9.868 2°35.207 324.9 13 328 18.6
2007-05-31 09:42:00 51°10.081 2°35.189 15 13.5 17 12.4
2007-05-31 09:43:00 51°10.285 2°35.354 31.7 13.9 29 12.7
2007-05-31 09:44:00 51°10.49 2°35.523 29.7 13.8 28 11.6
2007-05-31 09:45:00 51°10.695 2°35.691 28.5 13.8 27 11.8
2007-05-31 09:46:00 51°10.9 2°35.857 30.7 13.8 30 12
2007-05-31 09:47:00 51°11.097 2°36.048 32.9 13.9 31 12.2
2007-05-31 09:48:00 51°11.296 2°36.235 32.5 13.8 31 12.2
2007-05-31 09:49:00 51°11.494 2°36.42 31.9 13.8 30 12.3
2007-05-31 09:50:00 51°11.682 2°36.635 39.9 13.9 38 12.4
2007-05-31 09:51:00 51°11.865 2°36.857 38.9 13.9 37 11.9
2007-05-31 09:52:00 51°12.05 2°37.077 38.8 13.8 36 12.4
2007-05-31 09:53:00 51°12.234 2°37.297 38.4 13.8 36 12.7
2007-05-31 09:54:00 51°12.42 2°37.511 38.4 13.7 35 13.1
2007-05-31 09:55:00 51°12.607 2°37.719 36.6 13.7 33 13.9
2007-05-31 09:56:00 51°12.8 2°37.913 35 13.8 32 14.5
2007-05-31 09:57:00 51°12.994 2°38.109 35.3 13.9 33 15.2
2007-05-31 09:58:00 51°13.189 2°38.307 35.4 14 32 15.5
2007-05-31 09:59:00 51°13.385 2°38.504 35.1 13.9 32 16
2007-05-31 10:00:00 51°13.58 2°38.704 35.2 13.9 33 16.2
2007-05-31 10:01:00 51°13.773 2°38.909 35.4 13.8 33 16
2007-05-31 10:02:00 51°13.975 2°39.06 15.2 13.1 7 15.3
2007-05-31 10:03:00 51°14.16 2°38.934 320.4 12.3 310 14
2007-05-31 10:04:00 51°14.192 2°38.625 264.5 12.4 252 17.2
2007-05-31 10:05:00 51°14.082 2°38.336 238.7 13 237 18.5
2007-05-31 10:06:00 51°13.991 2°38.026 251 13 246 18.9
2007-05-31 10:07:00 51°13.908 2°37.712 252.3 12.9 248 19.7
2007-05-31 10:08:00 51°13.828 2°37.395 252.5 12.9 249 20.5
2007-05-31 10:09:00 51°13.752 2°37.077 253.3 12.8 249 20.7
2007-05-31 10:10:00 51°13.679 2°36.759 253.9 12.8 249 20.9
2007-05-31 10:11:00 51°13.608 2°36.443 254.5 12.6 251 21.2
2007-05-31 10:12:00 51°13.535 2°36.132 252.8 12.5 248 19.7
2007-05-31 10:13:00 51°13.46 2°35.826 252.9 12.3 249 19.4
2007-05-31 10:14:00 51°13.387 2°35.523 253.1 12.3 249 19.2
2007-05-31 10:15:00 51°13.308 2°35.224 250.8 12.2 248 19.1
2007-05-31 10:16:00 51°13.229 2°34.927 251.1 12.2 248 19.1
2007-05-31 10:17:00 51°13.151 2°34.629 251.1 12.2 247 19
2007-05-31 10:18:00 51°13.072 2°34.331 251 12.1 247 18.5
2007-05-31 10:19:00 51°12.99 2°34.034 251.1 12.2 246 17.7
2007-05-31 10:20:00 51°12.908 2°33.737 251.3 12.2 246 16.2
2007-05-31 10:21:00 51°12.828 2°33.438 252.3 12.2 247 17.1
2007-05-31 10:22:00 51°12.75 2°33.136 252.5 12.3 248 17.9
2007-05-31 10:23:00 51°12.672 2°32.832 252 12.4 248 19.6
2007-05-31 10:24:00 51°12.597 2°32.527 252.2 12.4 248 21.8
2007-05-31 10:25:00 51°12.522 2°32.22 252.4 12.4 249 24.7
2007-05-31 10:26:00 51°12.448 2°31.914 252.2 12.4 249 24.8
2007-05-31 10:27:00 51°12.371 2°31.609 251.2 12.4 248 25
2007-05-31 10:28:00 51°12.292 2°31.307 250.4 12.3 247 25
2007-05-31 10:29:00 51°12.21 2°31.006 249.9 12.3 247 24.7
2007-05-31 10:30:00 51°12.131 2°30.706 250.1 12.2 248 24.6
2007-05-31 10:31:00 51°12.056 2°30.413 250.4 11.8 248 24.5
2007-05-31 10:32:00 51°11.982 2°30.128 249.4 11.7 247 24.7
2007-05-31 10:33:00 51°11.906 2°29.843 250.1 11.7 247 24.4
2007-05-31 10:34:00 51°11.83 2°29.557 250.3 11.7 247 23.6
2007-05-31 10:35:00 51°11.752 2°29.269 250.2 11.8 246 22.5
2007-05-31 10:36:00 51°11.674 2°28.979 250.9 11.9 247 22.1
2007-05-31 10:37:00 51°11.594 2°28.691 249.7 11.9 246 22.4
2007-05-31 10:38:00 51°11.515 2°28.406 250.1 11.8 246 23.1
2007-05-31 10:39:00 51°11.441 2°28.119 255.3 11.6 255 21.6
2007-05-31 10:40:00 51°11.452 2°27.817 286.8 11.8 294 23.5
2007-05-31 10:41:00 51°11.601 2°27.607 330.9 12.6 335 13.9
2007-05-31 10:42:00 51°11.8 2°27.487 337.6 12.8 338 11.6
2007-05-31 10:43:00 51°12 2°27.362 335.8 13 339 11.3
2007-05-31 10:44:00 51°12.2 2°27.229 334.5 13.1 337 13.2
2007-05-31 10:45:00 51°12.409 2°27.111 339.5 13.5 342 18.1
2007-05-31 10:46:00 51°12.627 2°27.068 11 13.9 24 25.2
2007-05-31 10:47:00 51°12.819 2°27.303 39.4 14.7 39 26.5
2007-05-31 10:48:00 51°13.011 2°27.545 40.2 14.7 38 25.6
2007-05-31 10:49:00 51°13.204 2°27.789 40.4 14.8 39 25.4
2007-05-31 10:50:00 51°13.395 2°28.034 40.1 14.7 39 24.2
2007-05-31 10:51:00 51°13.587 2°28.274 39.7 14.7 38 23.5
2007-05-31 10:52:00 51°13.777 2°28.516 40.4 14.6 39 23.4
2007-05-31 10:53:00 51°13.967 2°28.76 39.9 14.6 39 23
2007-05-31 10:54:00 51°14.159 2°29.002 40.6 14.7 38 24.8
2007-05-31 10:55:00 51°14.35 2°29.245 40.4 14.7 38 25.1
2007-05-31 10:56:00 51°14.542 2°29.491 40.6 14.8 39 26.6
2007-05-31 10:57:00 51°14.736 2°29.735 40.1 14.8 39 27.9
2007-05-31 10:58:00 51°14.93 2°29.982 40.4 14.9 38 29
2007-05-31 10:59:00 51°15.125 2°30.228 39.9 15 38 29.4
2007-05-31 11:00:00 51°15.321 2°30.473 39.9 15 39 29.4
2007-05-31 11:01:00 51°15.516 2°30.72 40.6 14.9 38 29.6
2007-05-31 11:02:00 51°15.711 2°30.967 40 14.9 39 29.7
2007-05-31 11:03:00 51°15.904 2°31.213 39.9 14.8 38 29.5
2007-05-31 11:04:00 51°16.098 2°31.459 40.6 14.9 38 29.3
2007-05-31 11:05:00 51°16.278 2°31.725 53.7 14.7 59 29.8
2007-05-31 11:06:00 51°16.272 2°32.09 113.9 14.2 106 29
2007-05-31 11:07:00 51°16.222 2°32.466 107.9 14.6 101 28.7
2007-05-31 11:08:00 51°16.167 2°32.844 110.8 14.6 104 20.9
2007-05-31 11:09:00 51°16.102 2°33.22 111.9 14.9 106 11.1
2007-05-31 11:10:00 51°16.037 2°33.601 110.1 15 105 12
2007-05-31 11:11:00 51°15.971 2°33.981 110.1 14.8 106 14.2
2007-05-31 11:12:00 51°15.908 2°34.358 109.7 14.6 105 22.8
2007-05-31 11:13:00 51°15.847 2°34.731 109.9 14.6 105 27.9
2007-05-31 11:14:00 51°15.796 2°35.099 110.3 14.1 103 28.8
2007-05-31 11:15:00 51°15.743 2°35.465 110.3 14.2 102 28.9
2007-05-31 11:16:00 51°15.691 2°35.833 110.5 14.2 103 29.1
2007-05-31 11:17:00 51°15.638 2°36.203 109.9 14.3 103 25.7
2007-05-31 11:18:00 51°15.585 2°36.574 109.5 14.4 103 18.6
2007-05-31 11:19:00 51°15.528 2°36.948 110.7 14.6 104 14.4
2007-05-31 11:20:00 51°15.471 2°37.328 111 14.6 104 15.4
2007-05-31 11:21:00 51°15.413 2°37.709 110.7 14.7 104 13.8
2007-05-31 11:22:00 51°15.353 2°38.09 111.2 14.9 104 13.9
2007-05-31 11:23:00 51°15.294 2°38.47 110 14.7 104 17
2007-05-31 11:24:00 51°15.237 2°38.846 110.2 14.5 103 20.5
2007-05-31 11:25:00 51°15.213 2°39.22 90.7 14.3 77 20.8
2007-05-31 11:26:00 51°15.319 2°39.567 64.1 14.7 59 20.5
2007-05-31 11:27:00 51°15.45 2°39.896 57.7 14.6 49 20.2
2007-05-31 11:28:00 51°15.655 2°40.095 25.4 14.5 21 20.7
2007-05-31 11:29:00 51°15.88 2°40.246 26 14.7 25 21.7
2007-05-31 11:30:00 51°16.101 2°40.413 28.7 14.7 27 22.6
2007-05-31 11:31:00 51°16.32 2°40.59 28.9 14.8 28 23.1
2007-05-31 11:32:00 51°16.539 2°40.768 29.8 14.9 28 24.4
2007-05-31 11:33:00 51°16.758 2°40.949 29 14.9 28 25.3
2007-05-31 11:34:00 51°16.978 2°41.131 30.4 14.9 28 25.7
2007-05-31 11:35:00 51°17.197 2°41.316 30.4 14.9 28 26.3
2007-05-31 11:36:00 51°17.416 2°41.504 30.3 14.9 29 26.5
2007-05-31 11:37:00 51°17.637 2°41.693 30.1 15.1 29 26.3
2007-05-31 11:38:00 51°17.858 2°41.882 30 15.1 28 26.6
2007-05-31 11:39:00 51°18.087 2°42.019 12.7 14.4 5 26.4
2007-05-31 11:40:00 51°18.29 2°41.896 320.4 12.8 321 25.9
2007-05-31 11:41:00 51°18.439 2°41.652 310.4 12.8 313 23.4
2007-05-31 11:42:00 51°18.588 2°41.405 312.9 12.9 315 20.4
2007-05-31 11:43:00 51°18.739 2°41.162 313.9 13 316 22.2
2007-05-31 11:44:00 51°18.897 2°40.932 314.1 12.9 318 22
2007-05-31 11:45:00 51°19.063 2°40.707 315.7 13.1 320 19.6
2007-05-31 11:46:00 51°19.228 2°40.48 314.9 13.1 320 19.6
2007-05-31 11:47:00 51°19.389 2°40.244 312 13.3 316 24.2
2007-05-31 11:48:00 51°19.548 2°39.995 313.1 13.5 316 30
2007-05-31 11:49:00 51°19.708 2°39.742 313.1 13.6 315 32.4
2007-05-31 11:50:00 51°19.869 2°39.49 312.5 13.3 314 31.3
2007-05-31 11:51:00 51°20.025 2°39.242 312.8 13.2 315 28.4
2007-05-31 11:52:00 51°20.18 2°38.997 313.7 13.1 315 26.9
2007-05-31 11:53:00 51°20.341 2°38.763 320.9 13.3 326 26.9
2007-05-31 11:54:00 51°20.537 2°38.592 329.3 13.5 332 26.6
2007-05-31 11:55:00 51°20.734 2°38.42 329.5 13.4 331 26.8
2007-05-31 11:56:00 51°20.929 2°38.246 328.8 13.4 332 25.8
2007-05-31 11:57:00 51°21.124 2°38.072 328.4 13.4 331 27.6
2007-05-31 11:58:00 51°21.318 2°37.895 328.5 13.5 331 28.3
2007-05-31 11:59:00 51°21.514 2°37.721 328.4 13.5 333 28.6
2007-05-31 12:00:00 51°21.736 2°37.625 346 14 350 30.5
2007-05-31 12:01:00 51°21.967 2°37.563 347.6 14.2 352 33.2
2007-05-31 12:02:00 51°22.204 2°37.525 352.7 14.4 354 32.3
2007-05-31 12:03:00 51°22.443 2°37.489 351.7 14.4 355 32.3
2007-05-31 12:04:00 51°22.682 2°37.461 353.7 14.5 355 31.7
2007-05-31 12:05:00 51°22.921 2°37.443 357 14.2 358 29.6
2007-05-31 12:06:00 51°23.156 2°37.425 356.3 14.1 357 30.1
2007-05-31 12:07:00 51°23.391 2°37.406 356.7 14.1 358 25.9
2007-05-31 12:08:00 51°23.621 2°37.477 24.9 14.6 27 26.3
2007-05-31 12:09:00 51°23.807 2°37.724 50.1 14.7 47 27.7
2007-05-31 12:10:00 51°23.976 2°38.01 49.4 14.7 46 27.8
2007-05-31 12:11:00 51°24.149 2°38.291 48.7 14.8 44 27.6
2007-05-31 12:12:00 51°24.318 2°38.579 57.1 14.8 55 28.4
2007-05-31 12:13:00 51°24.452 2°38.91 61.9 14.8 57 30.3
2007-05-31 12:14:00 51°24.572 2°39.253 73.2 14.8 69 28.1
2007-05-31 12:15:00 51°24.662 2°39.619 73.6 14.7 67 28.2
2007-05-31 12:16:00 51°24.758 2°39.984 72.9 14.9 67 28.8
2007-05-31 12:17:00 51°24.863 2°40.341 70 14.9 64 29.1
2007-05-31 12:18:00 51°24.972 2°40.698 69.8 14.8 64 27.5
2007-05-31 12:19:00 51°25.082 2°41.052 69.8 15 64 26.9
2007-05-31 12:20:00 51°25.202 2°41.4 65.9 15 60 28.3
2007-05-31 12:21:00 51°25.323 2°41.745 66.2 14.9 60 27.8
2007-05-31 12:22:00 51°25.445 2°42.089 66.2 14.7 61 29
2007-05-31 12:23:00 51°25.566 2°42.434 66.8 14.8 61 28.8
2007-05-31 12:24:00 51°25.685 2°42.781 66.7 14.9 61 28
2007-05-31 12:25:00 51°25.803 2°43.133 67.5 15 64 27.4
2007-05-31 12:26:00 51°25.905 2°43.499 72.9 15.1 67 27.7
2007-05-31 12:27:00 51°25.988 2°43.877 77.6 15 73 28.3
2007-05-31 12:28:00 51°26.06 2°44.262 80 15.1 74 27
2007-05-31 12:29:00 51°26.13 2°44.646 80.2 15 74 29.5
2007-05-31 12:30:00 51°26.201 2°45.029 79.5 15 73 29.4
2007-05-31 12:31:00 51°26.273 2°45.41 79.6 15 73 29.4
2007-05-31 12:32:00 51°26.344 2°45.791 80.1 15.1 74 28.2
2007-05-31 12:33:00 51°26.415 2°46.17 79.1 14.8 73 28.1
2007-05-31 12:34:00 51°26.486 2°46.549 79.1 14.8 73 27.4
2007-05-31 12:35:00 51°26.559 2°46.927 77 14.9 72 29.1
2007-05-31 12:36:00 51°26.64 2°47.301 76.6 14.9 71 27.8
2007-05-31 12:37:00 51°26.719 2°47.676 77.2 14.9 71 24.7
2007-05-31 12:38:00 51°26.8 2°48.054 76.4 15.1 70 26.5
2007-05-31 12:39:00 51°26.884 2°48.437 77.8 15.3 72 25.8
2007-05-31 12:40:00 51°26.968 2°48.823 76.7 15.3 70 25.8
2007-05-31 12:41:00 51°27.055 2°49.209 77.6 15.4 70 25.4
2007-05-31 12:42:00 51°27.14 2°49.597 77.6 15.4 70 25.1
2007-05-31 12:43:00 51°27.225 2°49.982 76.8 15.4 71 25.1
2007-05-31 12:44:00 51°27.309 2°50.367 77.8 15.2 71 24.6
2007-05-31 12:45:00 51°27.39 2°50.752 76.9 15.2 73 23.5
2007-05-31 12:46:00 51°27.379 2°51.132 117.5 14.1 113 22
2007-05-31 12:47:00 51°27.222 2°51.374 159.2 12.9 153 23
2007-05-31 12:48:00 51°27.019 2°51.438 179.2 12.3 170 23.1
2007-05-31 12:49:00 51°26.814 2°51.513 175.5 12.5 166 24
2007-05-31 12:50:00 51°26.61 2°51.598 173.5 12.8 164 27.3
2007-05-31 12:51:00 51°26.405 2°51.69 173.2 12.7 164 28.3
2007-05-31 12:52:00 51°26.202 2°51.785 172.7 12.6 163 27.2
2007-05-31 12:53:00 51°26.001 2°51.875 174.4 12.4 167 29.1
2007-05-31 12:54:00 51°25.798 2°51.959 174.3 12.6 165 30.2
2007-05-31 12:55:00 51°25.595 2°52.029 182.7 12.3 179 30.1
2007-05-31 12:56:00 51°25.4 2°51.973 204.3 11.8 202 29
2007-05-31 12:57:00 51°25.216 2°51.854 206.6 12 204 25.3
2007-05-31 12:58:00 51°25.036 2°51.724 209.2 12 205 24.6
2007-05-31 12:59:00 51°24.854 2°51.598 208.1 11.9 204 24.9
2007-05-31 13:00:00 51°24.674 2°51.458 211.7 12 208 24.2
2007-05-31 13:01:00 51°24.498 2°51.309 211.8 11.9 208 24.1
2007-05-31 13:02:00 51°24.323 2°51.162 211.7 11.9 207 24.2
2007-05-31 13:03:00 51°24.147 2°51.012 211.7 12.2 209 23.9
2007-05-31 13:04:00 51°23.966 2°50.857 211 12.4 207 23.3
2007-05-31 13:05:00 51°23.785 2°50.706 211.8 12.2 208 21.3
2007-05-31 13:06:00 51°23.605 2°50.556 211.4 12.2 208 21.2
2007-05-31 13:07:00 51°23.426 2°50.407 210.9 12.1 207 18.1
2007-05-31 13:08:00 51°23.246 2°50.258 211.1 12 208 18.7
2007-05-31 13:09:00 51°23.066 2°50.109 211.5 12 208 18.2
2007-05-31 13:10:00 51°22.885 2°49.958 211 12.5 206 19.1
2007-05-31 13:11:00 51°22.704 2°49.808 211.2 12.2 207 21.3
2007-05-31 13:12:00 51°22.521 2°49.665 211.1 12.2 205 22.1
2007-05-31 13:13:00 51°22.339 2°49.521 211.2 12.3 205 23.4
2007-05-31 13:14:00 51°22.155 2°49.376 211.7 12.2 205 25.7
2007-05-31 13:15:00 51°21.972 2°49.229 212.3 12.3 207 25.5
2007-05-31 13:16:00 51°21.792 2°49.077 213.4 12.3 209 25.6
2007-05-31 13:17:00 51°21.619 2°48.902 218.2 12.4 214 25.1
2007-05-31 13:18:00 51°21.447 2°48.725 217.2 12.3 214 24.2
2007-05-31 13:19:00 51°21.276 2°48.542 218 12.4 213 23.2
2007-05-31 13:20:00 51°21.102 2°48.363 217.6 12.4 214 22.4
2007-05-31 13:21:00 51°20.93 2°48.185 217.4 12.3 213 22
2007-05-31 13:22:00 51°20.758 2°48.006 217.6 12.3 212 21.9
2007-05-31 13:23:00 51°20.586 2°47.824 217.6 12.3 215 21.9
2007-05-31 13:24:00 51°20.414 2°47.644 217.6 12.3 213 22
2007-05-31 13:25:00 51°20.243 2°47.463 217.5 12.4 212 22.2
2007-05-31 13:26:00 51°20.071 2°47.281 217.7 12.4 213 22.4
2007-05-31 13:27:00 51°19.899 2°47.097 217.7 12.5 214 22.2
2007-05-31 13:28:00 51°19.726 2°46.912 217.1 12.6 214 22.5
2007-05-31 13:29:00 51°19.551 2°46.734 216.2 12.6 212 23.3
2007-05-31 13:30:00 51°19.376 2°46.553 216.8 12.5 213 22.8
2007-05-31 13:31:00 51°19.201 2°46.372 216.5 12.5 213 22.2
2007-05-31 13:32:00 51°19.026 2°46.189 216.5 12.5 213 23.1
2007-05-31 13:33:00 51°18.851 2°46.006 216.7 12.4 213 23.1
2007-05-31 13:34:00 51°18.676 2°45.825 215.9 12.5 211 22.5
2007-05-31 13:35:00 51°18.496 2°45.657 214.1 12.4 210 22.6
2007-05-31 13:36:00 51°18.318 2°45.486 214.1 12.4 211 22.4
2007-05-31 13:37:00 51°18.139 2°45.314 214.7 12.5 212 21.5
2007-05-31 13:38:00 51°17.961 2°45.142 214.6 12.5 212 20.7
2007-05-31 13:39:00 51°17.782 2°44.971 214.2 12.6 211 19.9
2007-05-31 13:40:00 51°17.605 2°44.798 214.1 12.6 211 19
2007-05-31 13:41:00 51°17.428 2°44.626 214.4 12.5 212 18.4
2007-05-31 13:42:00 51°17.25 2°44.451 214.4 12.5 210 18
2007-05-31 13:43:00 51°17.068 2°44.287 212.3 12.6 209 17.9
2007-05-31 13:44:00 51°16.886 2°44.124 212 12.5 209 17.3
2007-05-31 13:45:00 51°16.704 2°43.959 212.1 12.6 209 16.7
2007-05-31 13:46:00 51°16.522 2°43.795 211.9 12.5 208 16.5
2007-05-31 13:47:00 51°16.335 2°43.643 209.7 12.5 207 16.1
2007-05-31 13:48:00 51°16.147 2°43.492 208.5 12.7 206 15.4
2007-05-31 13:49:00 51°15.959 2°43.341 209.3 12.6 207 14.3
2007-05-31 13:50:00 51°15.773 2°43.188 209.6 12.5 208 13.8
2007-05-31 13:51:00 51°15.585 2°43.036 209.1 12.6 207 13.7
2007-05-31 13:52:00 51°15.397 2°42.885 209.2 12.8 207 14.4
2007-05-31 13:53:00 51°15.209 2°42.734 209 12.7 206 15.1
2007-05-31 13:54:00 51°15.02 2°42.584 209.4 12.6 206 14.9
2007-05-31 13:55:00 51°14.831 2°42.435 209 12.7 206 15.2
2007-05-31 13:56:00 51°14.633 2°42.361 181.2 12.4 173 16.8
2007-05-31 13:57:00 51°14.461 2°42.543 135.3 13 123 19.3
2007-05-31 13:58:00 51°14.437 2°42.881 83.4 13.7 75 19.1
2007-05-31 13:59:00 51°14.501 2°43.234 80.5 14 75 18.9
2007-05-31 14:00:00 51°14.548 2°43.595 85.4 13.9 80 18.3
2007-05-31 14:01:00 51°14.58 2°43.957 87.4 13.8 82 17.6
2007-05-31 14:02:00 51°14.61 2°44.32 88.4 13.8 84 17
2007-05-31 14:03:00 51°14.634 2°44.683 89 13.8 84 15.9
2007-05-31 14:04:00 51°14.664 2°45.044 86.6 13.7 82 14.5
2007-05-31 14:05:00 51°14.691 2°45.402 87.9 13.5 83 13
2007-05-31 14:06:00 51°14.718 2°45.756 88.1 13.4 83 11.3
2007-05-31 14:07:00 51°14.752 2°46.108 85.4 13.5 82 10.5
2007-05-31 14:08:00 51°14.785 2°46.464 86.1 13.6 81 11
2007-05-31 14:09:00 51°14.831 2°46.82 83.4 13.7 78 12.1
2007-05-31 14:10:00 51°14.876 2°47.178 82.7 13.8 79 13.7
2007-05-31 14:11:00 51°14.92 2°47.538 83.3 13.8 79 14.4
2007-05-31 14:12:00 51°14.964 2°47.896 83.2 13.8 79 14.7
2007-05-31 14:13:00 51°15.008 2°48.254 82.4 13.6 79 14.7
2007-05-31 14:14:00 51°15.051 2°48.609 82.8 13.7 78 14.4
2007-05-31 14:15:00 51°15.093 2°48.966 82.8 13.7 79 14.4
2007-05-31 14:16:00 51°15.135 2°49.322 83.3 13.7 79 14.3
2007-05-31 14:17:00 51°15.179 2°49.678 82.7 13.7 78 14.3
2007-05-31 14:18:00 51°15.223 2°50.033 83.8 13.6 78 14.3
2007-05-31 14:19:00 51°15.265 2°50.387 83.6 13.6 79 14.3
2007-05-31 14:20:00 51°15.307 2°50.745 83.3 13.7 79 14.2
2007-05-31 14:21:00 51°15.349 2°51.104 82.6 13.8 80 14.1
2007-05-31 14:22:00 51°15.333 2°51.46 106.9 13.4 107 13.9
2007-05-31 14:23:00 51°15.24 2°51.78 119.5 13.4 115 13.4
2007-05-31 14:24:00 51°15.138 2°52.095 122.6 13.2 118 12.8
2007-05-31 14:25:00 51°15.032 2°52.407 121.8 13.4 118 12.4
2007-05-31 14:26:00 51°14.936 2°52.726 117.4 13.5 113 12.3
2007-05-31 14:27:00 51°14.846 2°53.051 115.9 13.4 114 12.6
2007-05-31 14:28:00 51°14.759 2°53.377 115.3 13.4 110 12.3
2007-05-31 14:29:00 51°14.711 2°53.724 103 13.5 99 11.9
2007-05-31 14:30:00 51°14.668 2°54.061 108.7 13.1 104 13
2007-05-31 14:31:00 51°14.585 2°54.392 121 13.7 116 12.5
2007-05-31 14:32:00 51°14.483 2°54.715 121.5 13.6 117 12.5
2007-05-31 14:33:00 51°14.37 2°55.022 124.8 13.4 125 11.7
2007-05-31 14:34:00 51°14.241 2°55.298 130.9 11.7 138 -999
2007-05-31 14:35:00 51°14.097 2°55.439 157 8.7 155 12.4
2007-05-31 14:36:00 51°13.984 2°55.518 159.5 7 156 12.5
2007-05-31 14:37:01 51°13.877 2°55.593 158.2 6.9 157 12.4
2007-05-31 14:38:00 51°13.766 2°55.692 141.6 8 141 -999
2007-05-31 14:39:01 51°13.686 2°55.839 126.8 6.3 124 -999
2007-05-31 14:40:01 51°13.636 2°55.955 121.5 4.5 120 -999
2007-05-31 14:41:01 51°13.611 2°56.042 111.1 2.8 112 -999
2007-05-31 14:42:01 51°13.6 2°56.084 118.4 0.7 120 -999